createdAt,value
2023-12-24T00:01:20.894Z,68.34
2023-12-24T00:03:48.520Z,68.23
2023-12-24T00:06:15.650Z,68.31
2023-12-24T00:08:42.783Z,68.44
2023-12-24T00:11:09.844Z,68.34
2023-12-24T00:13:36.797Z,68.36
2023-12-24T00:16:04.160Z,68.44
2023-12-24T00:18:31.249Z,68.31
2023-12-24T00:20:58.350Z,68.40
2023-12-24T00:23:25.418Z,68.46
2023-12-24T00:25:52.606Z,68.44
2023-12-24T00:28:19.577Z,68.53
2023-12-24T00:30:47.592Z,68.63
2023-12-24T00:33:14.740Z,68.31
2023-12-24T00:35:41.963Z,68.39
2023-12-24T00:38:09.053Z,68.60
2023-12-24T00:40:36.292Z,68.30
2023-12-24T00:43:03.600Z,68.51
2023-12-24T00:45:31.508Z,68.57
2023-12-24T00:48:00.132Z,68.76
2023-12-24T00:50:27.563Z,68.63
2023-12-24T00:52:55.059Z,68.58
2023-12-24T00:55:22.532Z,68.68
2023-12-24T00:57:49.507Z,68.63
2023-12-24T01:00:16.764Z,68.83
2023-12-24T01:02:43.929Z,68.78
2023-12-24T01:05:10.982Z,68.95
2023-12-24T01:07:38.098Z,68.73
2023-12-24T01:10:06.535Z,69.04
2023-12-24T01:12:34.015Z,68.61
2023-12-24T01:15:01.096Z,68.71
2023-12-24T01:17:28.495Z,68.60
2023-12-24T01:19:57.590Z,68.80
2023-12-24T01:22:24.604Z,68.98
2023-12-24T01:24:52.165Z,69.16
2023-12-24T01:27:19.246Z,69.29
2023-12-24T01:29:46.233Z,69.00
2023-12-24T01:32:13.176Z,69.01
2023-12-24T01:34:40.175Z,69.00
2023-12-24T01:37:07.145Z,69.18
2023-12-24T01:39:34.145Z,69.51
2023-12-24T01:42:01.137Z,69.31
2023-12-24T01:44:28.123Z,69.35
2023-12-24T01:46:55.477Z,69.52
2023-12-24T01:49:22.550Z,69.57
2023-12-24T01:51:50.846Z,69.73
2023-12-24T01:54:19.881Z,69.61
2023-12-24T01:56:48.293Z,69.51
2023-12-24T01:59:16.498Z,69.73
2023-12-24T02:01:43.963Z,69.62
2023-12-24T02:04:11.134Z,69.76
2023-12-24T02:06:38.228Z,70.05
2023-12-24T02:09:05.359Z,70.03
2023-12-24T02:11:32.404Z,70.05
2023-12-24T02:13:59.527Z,69.96
2023-12-24T02:16:28.917Z,69.67
2023-12-24T02:18:56.029Z,69.99
2023-12-24T02:21:23.202Z,70.34
2023-12-24T02:23:50.778Z,69.99
2023-12-24T02:26:37.225Z,70.12
2023-12-24T02:29:11.876Z,70.28
2023-12-24T02:31:40.208Z,70.14
2023-12-24T02:34:07.637Z,70.00
2023-12-24T02:36:35.403Z,70.25
2023-12-24T02:39:02.599Z,69.89
2023-12-24T02:41:30.272Z,70.13
2023-12-24T02:43:57.220Z,70.27
2023-12-24T02:46:24.315Z,70.44
2023-12-24T02:48:51.343Z,70.24
2023-12-24T02:51:18.500Z,70.45
2023-12-24T02:53:45.908Z,70.33
2023-12-24T02:56:13.128Z,70.42
2023-12-24T02:58:40.098Z,70.34
2023-12-24T03:01:07.347Z,70.57
2023-12-24T03:03:34.523Z,70.48
2023-12-24T03:06:01.628Z,70.52
2023-12-24T03:08:28.785Z,70.97
2023-12-24T03:10:55.798Z,70.86
2023-12-24T03:13:22.779Z,70.90
2023-12-24T03:15:49.849Z,70.89
2023-12-24T03:18:16.842Z,70.69
2023-12-24T03:20:44.082Z,70.62
2023-12-24T03:23:11.315Z,71.29
2023-12-24T03:25:38.315Z,70.49
2023-12-24T03:28:05.910Z,71.19
2023-12-24T03:30:33.007Z,70.93
2023-12-24T03:33:00.112Z,70.95
2023-12-24T03:35:27.144Z,71.14
2023-12-24T03:37:54.185Z,71.08
2023-12-24T03:40:21.171Z,70.96
2023-12-24T03:42:48.226Z,71.57
2023-12-24T03:45:15.218Z,71.38
2023-12-24T03:47:42.664Z,71.36
2023-12-24T03:50:09.829Z,71.33
2023-12-24T03:52:36.792Z,71.65
2023-12-24T03:55:03.934Z,70.94
2023-12-24T03:57:30.889Z,71.39
2023-12-24T03:59:58.344Z,71.26
2023-12-24T04:02:26.256Z,71.75
2023-12-24T04:04:53.300Z,71.17
2023-12-24T04:07:20.347Z,71.78
2023-12-24T04:09:47.344Z,71.99
2023-12-24T04:12:14.337Z,72.29
2023-12-24T04:14:41.501Z,72.38
2023-12-24T04:17:08.728Z,72.21
2023-12-24T04:19:35.992Z,71.94
2023-12-24T04:22:03.773Z,72.31
2023-12-24T04:24:31.938Z,72.20
2023-12-24T04:26:59.184Z,72.77
2023-12-24T04:29:26.281Z,72.46
2023-12-24T04:31:53.455Z,72.27
2023-12-24T04:34:20.483Z,72.26
2023-12-24T04:36:47.549Z,72.33
2023-12-24T04:39:14.592Z,72.59
2023-12-24T04:41:42.038Z,72.56
2023-12-24T04:44:09.666Z,73.09
2023-12-24T04:46:43.418Z,72.69
2023-12-24T04:49:10.770Z,73.06
2023-12-24T04:51:37.942Z,72.68
2023-12-24T04:54:05.077Z,73.18
2023-12-24T04:56:33.319Z,73.17
2023-12-24T04:59:01.311Z,73.00
2023-12-24T05:01:29.055Z,73.40
2023-12-24T05:03:56.180Z,73.57
2023-12-24T05:06:23.264Z,73.18
2023-12-24T05:08:50.277Z,73.83
2023-12-24T05:11:17.375Z,73.46
2023-12-24T05:13:44.349Z,73.38
2023-12-24T05:16:11.422Z,73.83
2023-12-24T05:18:38.614Z,73.84
2023-12-24T05:21:06.194Z,73.72
2023-12-24T05:23:33.061Z,73.94
2023-12-24T05:26:00.299Z,74.00
2023-12-24T05:28:27.640Z,74.14
2023-12-24T05:30:54.742Z,73.86
2023-12-24T05:33:21.881Z,74.21
2023-12-24T05:35:48.949Z,74.20
2023-12-24T05:38:16.035Z,74.02
2023-12-24T05:40:43.026Z,74.15
2023-12-24T05:43:10.015Z,74.54
2023-12-24T05:45:37.137Z,73.94
2023-12-24T05:48:04.739Z,74.52
2023-12-24T05:50:31.856Z,74.49
2023-12-24T05:52:58.847Z,74.58
2023-12-24T05:55:26.088Z,74.48
2023-12-24T05:57:53.101Z,74.79
2023-12-24T06:00:20.334Z,74.42
2023-12-24T06:02:47.395Z,74.79
2023-12-24T06:05:14.679Z,74.52
2023-12-24T06:07:41.608Z,74.53
2023-12-24T06:10:09.266Z,74.55
2023-12-24T06:12:37.332Z,75.09
2023-12-24T06:15:06.364Z,74.70
2023-12-24T06:17:33.738Z,75.10
2023-12-24T06:20:01.360Z,74.93
2023-12-24T06:22:28.550Z,75.29
2023-12-24T06:24:55.496Z,74.83
2023-12-24T06:27:23.753Z,75.31
2023-12-24T06:29:50.647Z,74.93
2023-12-24T06:32:17.610Z,75.37
2023-12-24T06:34:44.598Z,75.07
2023-12-24T06:37:11.701Z,75.29
2023-12-24T06:39:39.342Z,75.33
2023-12-24T06:42:06.617Z,75.33
2023-12-24T06:44:34.293Z,75.17
2023-12-24T06:47:01.418Z,75.02
2023-12-24T06:49:28.385Z,75.58
2023-12-24T06:51:55.392Z,75.26
2023-12-24T06:54:22.226Z,75.34
2023-12-24T06:56:49.106Z,75.61
2023-12-24T06:59:16.205Z,75.57
2023-12-24T07:01:43.507Z,75.79
2023-12-24T07:04:10.391Z,75.32
2023-12-24T07:06:37.827Z,75.80
2023-12-24T07:09:06.878Z,75.76
2023-12-24T07:11:33.892Z,76.03
2023-12-24T07:14:00.961Z,75.67
2023-12-24T07:16:27.922Z,75.68
2023-12-24T07:18:55.100Z,75.82
2023-12-24T07:21:22.117Z,76.05
2023-12-24T07:23:49.244Z,76.12
2023-12-24T07:26:16.417Z,75.69
2023-12-24T07:28:43.328Z,76.10
2023-12-24T07:31:10.388Z,75.98
2023-12-24T07:33:37.541Z,76.07
2023-12-24T07:36:05.129Z,76.08
2023-12-24T07:38:32.083Z,76.10
2023-12-24T07:40:59.149Z,75.95
2023-12-24T07:43:26.139Z,76.29
2023-12-24T07:45:53.672Z,76.19
2023-12-24T07:48:20.761Z,76.14
2023-12-24T07:50:47.862Z,76.23
2023-12-24T07:53:15.121Z,76.50
2023-12-24T07:55:42.384Z,76.49
2023-12-24T07:58:10.081Z,76.72
2023-12-24T08:00:37.056Z,76.62
2023-12-24T08:03:05.059Z,76.21
2023-12-24T08:05:32.808Z,76.50
2023-12-24T08:07:59.887Z,76.47
2023-12-24T08:10:27.316Z,76.30
2023-12-24T08:13:01.733Z,76.71
2023-12-24T08:15:35.181Z,76.72
2023-12-24T08:18:02.550Z,76.81
2023-12-24T08:20:30.057Z,76.69
2023-12-24T08:22:57.180Z,76.63
2023-12-24T08:25:24.099Z,76.93
2023-12-24T08:27:51.303Z,76.71
2023-12-24T08:30:18.386Z,76.82
2023-12-24T08:32:45.503Z,76.92
2023-12-24T08:35:12.880Z,76.91
2023-12-24T08:37:39.904Z,76.96
2023-12-24T08:40:07.609Z,76.94
2023-12-24T08:42:34.864Z,77.06
2023-12-24T08:45:01.939Z,77.07
2023-12-24T08:47:29.085Z,77.13
2023-12-24T08:49:56.059Z,77.27
2023-12-24T08:52:23.040Z,77.19
2023-12-24T08:54:50.090Z,77.22
2023-12-24T08:57:17.080Z,77.00
2023-12-24T08:59:44.093Z,77.17
2023-12-24T09:02:11.236Z,77.19
2023-12-24T09:04:38.134Z,77.40
2023-12-24T09:07:05.143Z,77.27
2023-12-24T09:09:32.219Z,77.14
2023-12-24T09:11:59.185Z,77.26
2023-12-24T09:14:26.627Z,77.26
2023-12-24T09:16:53.709Z,77.46
2023-12-24T09:19:20.832Z,77.46
2023-12-24T09:21:47.752Z,77.43
2023-12-24T09:24:14.698Z,77.49
2023-12-24T09:26:43.334Z,77.42
2023-12-24T09:29:12.971Z,77.64
2023-12-24T09:31:40.924Z,77.51
2023-12-24T09:34:09.582Z,77.68
2023-12-24T09:36:36.665Z,77.52
2023-12-24T09:39:05.269Z,77.94
2023-12-24T09:41:32.158Z,77.36
2023-12-24T09:43:59.994Z,77.59
2023-12-24T09:46:26.766Z,78.00
2023-12-24T09:48:53.856Z,77.82
2023-12-24T09:51:20.834Z,77.46
2023-12-24T09:53:50.216Z,77.63
2023-12-24T09:56:17.287Z,77.70
2023-12-24T09:58:46.866Z,77.94
2023-12-24T10:01:14.284Z,77.91
2023-12-24T10:03:41.747Z,78.05
2023-12-24T10:06:09.546Z,78.03
2023-12-24T10:08:37.351Z,78.04
2023-12-24T10:11:25.299Z,77.98
2023-12-24T10:14:00.415Z,77.92
2023-12-24T10:16:28.098Z,78.10
2023-12-24T10:18:59.702Z,77.87
2023-12-24T10:21:27.045Z,78.34
2023-12-24T10:23:54.011Z,78.02
2023-12-24T10:26:22.196Z,78.13
2023-12-24T10:28:58.262Z,78.14
2023-12-24T10:31:31.214Z,77.95
2023-12-24T10:34:02.091Z,78.33
2023-12-24T10:36:29.301Z,78.22
2023-12-24T10:38:56.336Z,78.20
2023-12-24T10:41:23.469Z,78.21
2023-12-24T10:43:50.405Z,78.30
2023-12-24T10:46:17.354Z,78.30
2023-12-24T10:48:44.339Z,78.34
2023-12-24T10:51:11.273Z,78.03
2023-12-24T10:53:42.993Z,78.35
2023-12-24T10:56:10.147Z,78.09
2023-12-24T10:59:06.627Z,78.29
2023-12-24T11:01:33.672Z,78.41
2023-12-24T11:04:00.923Z,78.04
2023-12-24T11:06:48.017Z,78.35
2023-12-24T11:09:45.248Z,78.34
2023-12-24T11:12:30.147Z,78.43
2023-12-24T11:14:57.675Z,78.20
2023-12-24T11:17:51.813Z,78.55
2023-12-24T11:20:41.402Z,78.79
2023-12-24T11:23:11.062Z,78.47
2023-12-24T11:25:39.180Z,78.44
2023-12-24T11:28:06.967Z,78.49
2023-12-24T11:31:02.202Z,78.59
2023-12-24T11:33:48.656Z,78.58
2023-12-24T11:36:16.865Z,78.71
2023-12-24T11:38:49.359Z,78.44
2023-12-24T11:41:20.099Z,78.59
2023-12-24T11:43:56.179Z,78.68
2023-12-24T11:46:24.674Z,78.51
2023-12-24T11:48:52.080Z,78.46
2023-12-24T11:51:24.339Z,78.50
2023-12-24T11:53:59.208Z,78.32
2023-12-24T11:56:26.340Z,78.45
2023-12-24T11:58:59.844Z,78.48
2023-12-24T12:01:39.896Z,78.97
2023-12-24T12:04:08.211Z,78.67
2023-12-24T12:06:37.028Z,78.58
2023-12-24T12:09:08.219Z,78.60
2023-12-24T12:11:35.480Z,78.76
2023-12-24T12:14:03.365Z,78.70
2023-12-24T12:16:30.511Z,78.85
2023-12-24T12:18:58.583Z,78.91
2023-12-24T12:21:25.626Z,78.92
2023-12-24T12:23:52.672Z,78.46
2023-12-24T12:26:20.148Z,78.58
2023-12-24T12:28:47.119Z,78.84
2023-12-24T12:31:14.104Z,78.90
2023-12-24T12:33:41.208Z,78.58
2023-12-24T12:36:08.998Z,78.76
2023-12-24T12:38:36.629Z,78.67
2023-12-24T12:41:06.018Z,78.65
2023-12-24T12:43:33.527Z,78.53
2023-12-24T12:46:00.396Z,78.61
2023-12-24T12:48:27.828Z,78.92
2023-12-24T12:50:55.325Z,78.40
2023-12-24T12:53:26.190Z,79.07
2023-12-24T12:56:08.884Z,78.61
2023-12-24T12:58:36.414Z,78.61
2023-12-24T13:01:03.738Z,78.63
2023-12-24T13:03:34.104Z,78.50
2023-12-24T13:06:11.559Z,78.80
2023-12-24T13:08:38.936Z,78.58
2023-12-24T13:11:09.251Z,78.92
2023-12-24T13:13:36.649Z,78.93
2023-12-24T13:16:06.062Z,78.81
2023-12-24T13:18:33.514Z,78.45
2023-12-24T13:21:05.619Z,79.12
2023-12-24T13:23:33.490Z,78.53
2023-12-24T13:26:04.685Z,78.52
2023-12-24T13:28:32.144Z,78.69
2023-12-24T13:30:59.083Z,78.60
2023-12-24T13:33:26.198Z,78.84
2023-12-24T13:35:53.384Z,78.60
2023-12-24T13:38:21.807Z,79.08
2023-12-24T13:40:49.338Z,78.70
2023-12-24T13:43:16.825Z,78.63
2023-12-24T13:45:44.222Z,78.86
2023-12-24T13:48:13.865Z,78.98
2023-12-24T13:50:42.927Z,78.95
2023-12-24T13:53:19.311Z,78.63
2023-12-24T13:55:58.742Z,78.63
2023-12-24T13:58:26.354Z,78.87
2023-12-24T14:00:53.420Z,79.12
2023-12-24T14:03:23.559Z,78.95
2023-12-24T14:05:51.569Z,79.02
2023-12-24T14:08:18.668Z,78.68
2023-12-24T14:10:45.668Z,79.09
2023-12-24T14:13:12.683Z,78.82
2023-12-24T14:15:39.589Z,78.76
2023-12-24T14:18:08.343Z,78.99
2023-12-24T14:20:35.438Z,78.75
2023-12-24T14:23:02.403Z,79.04
2023-12-24T14:25:29.279Z,78.87
2023-12-24T14:27:56.181Z,79.27
2023-12-24T14:30:24.204Z,79.11
2023-12-24T14:32:52.539Z,78.89
2023-12-24T14:35:19.924Z,79.08
2023-12-24T14:37:47.005Z,78.96
2023-12-24T14:40:14.125Z,79.09
2023-12-24T14:42:41.125Z,79.24
2023-12-24T14:45:08.192Z,79.34
2023-12-24T14:47:35.303Z,79.00
2023-12-24T14:50:02.352Z,79.20
2023-12-24T14:52:29.949Z,79.42
2023-12-24T14:54:58.211Z,79.27
2023-12-24T14:57:27.176Z,79.62
2023-12-24T14:59:58.290Z,79.39
2023-12-24T15:02:26.879Z,79.52
2023-12-24T15:04:55.118Z,79.68
2023-12-24T15:07:22.942Z,79.59
2023-12-24T15:09:49.974Z,79.74
2023-12-24T15:12:17.299Z,79.72
2023-12-24T15:14:44.964Z,79.87
2023-12-24T15:17:15.828Z,79.86
2023-12-24T15:19:44.085Z,80.09
2023-12-24T15:22:11.201Z,79.82
2023-12-24T15:24:38.228Z,79.84
2023-12-24T15:27:05.617Z,80.05
2023-12-24T15:29:32.617Z,80.16
2023-12-24T15:31:59.803Z,79.82
2023-12-24T15:34:26.754Z,80.00
2023-12-24T15:36:53.708Z,80.28
2023-12-24T15:39:20.703Z,80.41
2023-12-24T15:41:47.881Z,80.52
2023-12-24T15:44:14.885Z,80.23
2023-12-24T15:46:42.017Z,80.58
2023-12-24T15:49:09.055Z,80.33
2023-12-24T15:54:09.787Z,80.64
2023-12-24T15:56:36.698Z,80.75
2023-12-24T15:59:03.723Z,80.73
2023-12-24T16:01:30.850Z,80.53
2023-12-24T16:03:57.912Z,80.89
2023-12-24T16:06:25.186Z,80.94
2023-12-24T16:08:54.330Z,81.11
2023-12-24T16:11:21.537Z,80.98
2023-12-24T16:13:48.488Z,81.18
2023-12-24T16:16:15.571Z,80.84
2023-12-24T16:18:42.439Z,80.96
2023-12-24T16:21:09.543Z,81.05
2023-12-24T16:23:36.517Z,81.29
2023-12-24T16:26:03.944Z,81.48
2023-12-24T16:28:31.064Z,81.18
2023-12-24T16:30:58.137Z,81.56
2023-12-24T16:33:25.193Z,81.53
2023-12-24T16:35:52.210Z,81.60
2023-12-24T16:38:19.274Z,81.77
2023-12-24T16:40:46.220Z,81.80
2023-12-24T16:43:13.130Z,81.42
2023-12-24T16:45:40.065Z,81.62
2023-12-24T16:48:07.236Z,81.66
2023-12-24T16:50:34.579Z,81.67
2023-12-24T16:53:01.537Z,82.07
2023-12-24T16:55:28.660Z,81.80
2023-12-24T16:57:55.508Z,82.06
2023-12-24T17:00:22.826Z,81.79
2023-12-24T17:02:49.829Z,81.94
2023-12-24T17:05:17.136Z,82.25
2023-12-24T17:07:44.065Z,82.24
2023-12-24T17:10:11.535Z,82.18
2023-12-24T17:12:38.524Z,82.12
2023-12-24T17:15:06.624Z,82.21
2023-12-24T17:17:34.037Z,82.19
2023-12-24T17:20:01.287Z,82.23
2023-12-24T17:22:28.307Z,82.41
2023-12-24T17:24:55.269Z,82.66
2023-12-24T17:27:22.224Z,82.47
2023-12-24T17:29:50.073Z,82.84
2023-12-24T17:32:16.988Z,82.53
2023-12-24T17:34:44.210Z,82.91
2023-12-24T17:37:11.279Z,82.94
2023-12-24T17:39:40.868Z,82.89
2023-12-24T17:42:08.810Z,83.06
2023-12-24T17:44:36.902Z,82.83
2023-12-24T17:47:04.169Z,82.86
2023-12-24T17:49:31.965Z,82.75
2023-12-24T17:51:59.979Z,82.96
2023-12-24T17:54:26.917Z,83.13
2023-12-24T17:56:53.921Z,83.26
2023-12-24T17:59:21.042Z,83.17
2023-12-24T18:01:48.008Z,83.12
2023-12-24T18:04:14.901Z,83.07
2023-12-24T18:06:41.965Z,83.00
2023-12-24T18:09:08.973Z,83.00
2023-12-24T18:11:36.084Z,83.15
2023-12-24T18:14:03.174Z,83.25
2023-12-24T18:16:30.616Z,83.49
2023-12-24T18:18:58.448Z,83.26
2023-12-24T18:21:28.551Z,83.42
2023-12-24T18:23:55.502Z,83.62
2023-12-24T18:26:23.815Z,83.24
2023-12-24T18:28:50.782Z,83.20
2023-12-24T18:31:17.742Z,83.47
2023-12-24T18:33:45.004Z,83.72
2023-12-24T18:36:18.146Z,83.61
2023-12-24T18:38:48.165Z,83.75
2023-12-24T18:41:26.894Z,83.52
2023-12-24T18:43:54.134Z,83.90
2023-12-24T18:46:21.603Z,83.86
2023-12-24T18:48:49.114Z,83.62
2023-12-24T18:51:23.201Z,84.00
2023-12-24T18:53:51.160Z,83.77
2023-12-24T18:56:33.278Z,84.09
2023-12-24T18:59:00.426Z,83.87
2023-12-24T19:01:27.302Z,84.02
2023-12-24T19:03:54.344Z,83.92
2023-12-24T19:06:26.244Z,83.99
2023-12-24T19:08:54.381Z,84.22
2023-12-24T19:11:24.567Z,84.04
2023-12-24T19:13:51.673Z,84.27
2023-12-24T19:16:18.575Z,84.41
2023-12-24T19:18:46.388Z,84.53
2023-12-24T19:21:13.618Z,84.36
2023-12-24T19:23:42.310Z,84.20
2023-12-24T19:26:09.365Z,84.26
2023-12-24T19:28:36.892Z,84.23
2023-12-24T19:31:04.847Z,84.24
2023-12-24T19:33:32.766Z,84.47
2023-12-24T19:36:01.898Z,84.71
2023-12-24T19:38:29.398Z,84.32
2023-12-24T19:40:56.537Z,84.56
2023-12-24T19:43:24.163Z,84.66
2023-12-24T19:45:52.994Z,84.57
2023-12-24T19:48:20.922Z,84.69
2023-12-24T19:50:48.280Z,84.71
2023-12-24T19:53:15.313Z,84.52
2023-12-24T19:55:49.409Z,85.04
2023-12-24T19:58:21.271Z,84.83
2023-12-24T20:00:50.300Z,84.88
2023-12-24T20:03:17.612Z,84.74
2023-12-24T20:05:45.760Z,85.18
2023-12-24T20:08:14.085Z,84.85
2023-12-24T20:10:42.923Z,84.97
2023-12-24T20:13:10.893Z,85.08
2023-12-24T20:15:38.566Z,85.02
2023-12-24T20:18:06.670Z,85.05
2023-12-24T20:20:34.124Z,85.32
2023-12-24T20:23:02.276Z,85.03
2023-12-24T20:25:29.847Z,85.40
2023-12-24T20:27:57.994Z,85.18
2023-12-24T20:30:25.783Z,85.27
2023-12-24T20:32:53.507Z,85.32
2023-12-24T20:35:20.792Z,85.49
2023-12-24T20:37:47.781Z,85.77
2023-12-24T20:40:17.416Z,85.40
2023-12-24T20:42:49.155Z,85.40
2023-12-24T20:45:18.868Z,85.65
2023-12-24T20:47:47.163Z,85.77
2023-12-24T20:50:14.534Z,85.82
2023-12-24T20:52:41.769Z,85.71
2023-12-24T20:55:09.854Z,85.58
2023-12-24T20:57:42.911Z,86.08
2023-12-24T21:00:13.394Z,85.89
2023-12-24T21:02:43.100Z,85.50
2023-12-24T21:05:17.785Z,85.52
2023-12-24T21:07:47.897Z,86.13
2023-12-24T21:10:15.300Z,85.86
2023-12-24T21:12:45.362Z,85.85
2023-12-24T21:15:14.767Z,86.29
2023-12-24T21:17:44.011Z,85.92
2023-12-24T21:20:15.515Z,85.86
2023-12-24T21:22:42.668Z,86.34
2023-12-24T21:25:10.751Z,85.81
2023-12-24T21:27:38.079Z,86.24
2023-12-24T21:30:06.095Z,86.47
2023-12-24T21:32:33.629Z,86.46
2023-12-24T21:35:02.753Z,86.52
2023-12-24T21:37:29.737Z,86.16
2023-12-24T21:39:57.427Z,86.39
2023-12-24T21:42:24.762Z,86.45
2023-12-24T21:44:51.735Z,86.28
2023-12-24T21:47:19.070Z,86.21
2023-12-24T21:49:47.189Z,86.69
2023-12-24T21:52:14.686Z,86.23
2023-12-24T21:54:42.578Z,86.65
2023-12-24T21:57:10.744Z,86.41
2023-12-24T21:59:38.206Z,86.40
2023-12-24T22:02:05.551Z,86.78
2023-12-24T22:04:32.600Z,86.78
2023-12-24T22:06:59.619Z,86.75
2023-12-24T22:09:26.611Z,86.64
2023-12-24T22:11:53.585Z,87.28
2023-12-24T22:14:20.849Z,87.35
2023-12-24T22:16:48.260Z,86.68
2023-12-24T22:19:15.430Z,86.66
2023-12-24T22:21:47.140Z,87.33
2023-12-24T22:24:15.043Z,86.65
2023-12-24T22:26:42.409Z,87.37
2023-12-24T22:29:09.317Z,87.29
2023-12-24T22:31:36.471Z,87.07
2023-12-24T22:34:03.525Z,87.39
2023-12-24T22:36:30.514Z,87.10
2023-12-24T22:38:59.412Z,87.09
2023-12-24T22:41:29.068Z,87.36
2023-12-24T22:43:56.084Z,87.04
2023-12-24T22:46:23.231Z,87.24
2023-12-24T22:48:50.355Z,86.99
2023-12-24T22:51:17.864Z,87.17
2023-12-24T22:53:45.077Z,87.13
2023-12-24T22:56:12.168Z,87.14
2023-12-24T22:58:39.302Z,86.97
2023-12-24T23:01:09.228Z,86.66
2023-12-24T23:03:43.204Z,86.94
2023-12-24T23:06:11.584Z,86.51
2023-12-24T23:08:38.736Z,86.71
2023-12-24T23:11:06.048Z,86.79
2023-12-24T23:13:32.989Z,86.41
2023-12-24T23:15:59.996Z,86.22
2023-12-24T23:18:27.048Z,86.66
2023-12-24T23:20:54.234Z,86.38
2023-12-24T23:23:21.348Z,86.14
2023-12-24T23:25:48.292Z,86.23
2023-12-24T23:28:15.236Z,86.51
2023-12-24T23:30:42.348Z,86.32
2023-12-24T23:33:09.508Z,86.32
2023-12-24T23:35:36.525Z,86.12
2023-12-24T23:38:03.636Z,85.93
2023-12-24T23:40:30.679Z,86.25
2023-12-24T23:42:57.707Z,86.03
2023-12-24T23:45:24.659Z,85.79
2023-12-24T23:47:51.742Z,86.09
2023-12-24T23:50:19.041Z,85.77
2023-12-24T23:52:45.891Z,86.01
2023-12-24T23:55:12.854Z,85.73
2023-12-24T23:57:39.918Z,85.70
